sensor_id;sensor_type;location;lat;lon;timestamp;P1;durP1;ratioP1;P2;durP2;ratioP2
35290;SDS011;21411;50.024;19.220;2023-09-12T00:00:36;33.40;;;30.10;;
35290;SDS011;21411;50.024;19.220;2023-09-12T00:03:23;35.60;;;31.90;;
35290;SDS011;21411;50.024;19.220;2023-09-12T00:05:50;34.90;;;31.30;;
35290;SDS011;21411;50.024;19.220;2023-09-12T00:08:20;35.90;;;32.30;;
35290;SDS011;21411;50.024;19.220;2023-09-12T00:10:54;33.80;;;30.40;;
35290;SDS011;21411;50.024;19.220;2023-09-12T00:13:28;34.20;;;30.90;;
35290;SDS011;21411;50.024;19.220;2023-09-12T00:15:54;33.90;;;30.60;;
35290;SDS011;21411;50.024;19.220;2023-09-12T00:18:21;30.80;;;27.70;;
35290;SDS011;21411;50.024;19.220;2023-09-12T00:20:49;32.00;;;28.90;;
35290;SDS011;21411;50.024;19.220;2023-09-12T00:23:17;33.50;;;30.10;;
35290;SDS011;21411;50.024;19.220;2023-09-12T00:25:44;32.20;;;29.00;;
35290;SDS011;21411;50.024;19.220;2023-09-12T00:28:11;32.40;;;29.30;;
35290;SDS011;21411;50.024;19.220;2023-09-12T00:30:37;32.40;;;29.20;;
35290;SDS011;21411;50.024;19.220;2023-09-12T00:33:04;32.40;;;29.20;;
35290;SDS011;21411;50.024;19.220;2023-09-12T00:35:30;33.20;;;29.90;;
35290;SDS011;21411;50.024;19.220;2023-09-12T00:37:57;30.90;;;27.90;;
35290;SDS011;21411;50.024;19.220;2023-09-12T00:40:24;31.80;;;28.70;;
35290;SDS011;21411;50.024;19.220;2023-09-12T00:42:50;32.70;;;29.70;;
35290;SDS011;21411;50.024;19.220;2023-09-12T00:45:17;32.00;;;29.00;;
35290;SDS011;21411;50.024;19.220;2023-09-12T00:47:44;33.80;;;30.50;;
35290;SDS011;21411;50.024;19.220;2023-09-12T00:50:10;33.00;;;29.30;;
35290;SDS011;21411;50.024;19.220;2023-09-12T00:52:37;34.10;;;30.70;;
35290;SDS011;21411;50.024;19.220;2023-09-12T00:55:05;35.30;;;31.60;;
35290;SDS011;21411;50.024;19.220;2023-09-12T00:57:32;42.20;;;38.10;;
35290;SDS011;21411;50.024;19.220;2023-09-12T01:00:02;45.00;;;40.10;;
35290;SDS011;21411;50.024;19.220;2023-09-12T01:02:37;41.00;;;37.30;;
35290;SDS011;21411;50.024;19.220;2023-09-12T01:05:05;40.80;;;36.50;;
35290;SDS011;21411;50.024;19.220;2023-09-12T01:07:34;39.30;;;35.30;;
35290;SDS011;21411;50.024;19.220;2023-09-12T01:10:02;40.10;;;36.10;;
35290;SDS011;21411;50.024;19.220;2023-09-12T01:12:29;40.70;;;36.70;;
35290;SDS011;21411;50.024;19.220;2023-09-12T01:14:55;44.20;;;39.90;;
35290;SDS011;21411;50.024;19.220;2023-09-12T01:17:22;41.90;;;37.70;;
35290;SDS011;21411;50.024;19.220;2023-09-12T01:19:50;38.30;;;34.70;;
35290;SDS011;21411;50.024;19.220;2023-09-12T01:27:35;37.20;;;33.70;;
35290;SDS011;21411;50.024;19.220;2023-09-12T01:32:32;40.00;;;36.10;;
35290;SDS011;21411;50.024;19.220;2023-09-12T01:35:00;40.10;;;36.20;;
35290;SDS011;21411;50.024;19.220;2023-09-12T01:37:30;42.70;;;38.30;;
35290;SDS011;21411;50.024;19.220;2023-09-12T01:39:57;38.60;;;34.80;;
35290;SDS011;21411;50.024;19.220;2023-09-12T01:42:24;42.60;;;38.60;;
35290;SDS011;21411;50.024;19.220;2023-09-12T01:44:56;42.70;;;38.50;;
35290;SDS011;21411;50.024;19.220;2023-09-12T01:47:24;39.20;;;35.60;;
35290;SDS011;21411;50.024;19.220;2023-09-12T01:49:52;39.30;;;35.60;;
35290;SDS011;21411;50.024;19.220;2023-09-12T01:52:22;35.90;;;32.50;;
35290;SDS011;21411;50.024;19.220;2023-09-12T01:54:49;35.90;;;32.60;;
35290;SDS011;21411;50.024;19.220;2023-09-12T01:57:17;35.00;;;31.70;;
35290;SDS011;21411;50.024;19.220;2023-09-12T02:02:16;32.60;;;29.50;;
35290;SDS011;21411;50.024;19.220;2023-09-12T02:04:51;34.90;;;31.80;;
35290;SDS011;21411;50.024;19.220;2023-09-12T02:07:24;36.10;;;32.80;;
35290;SDS011;21411;50.024;19.220;2023-09-12T02:09:53;34.40;;;31.40;;
35290;SDS011;21411;50.024;19.220;2023-09-12T02:12:19;36.30;;;32.80;;
35290;SDS011;21411;50.024;19.220;2023-09-12T02:14:46;34.00;;;30.80;;
35290;SDS011;21411;50.024;19.220;2023-09-12T02:17:12;34.50;;;31.50;;
35290;SDS011;21411;50.024;19.220;2023-09-12T02:19:39;38.30;;;34.70;;
35290;SDS011;21411;50.024;19.220;2023-09-12T02:22:05;35.80;;;32.50;;
35290;SDS011;21411;50.024;19.220;2023-09-12T02:24:34;36.10;;;32.60;;
35290;SDS011;21411;50.024;19.220;2023-09-12T02:27:01;38.90;;;35.10;;
35290;SDS011;21411;50.024;19.220;2023-09-12T02:29:27;38.00;;;34.30;;
35290;SDS011;21411;50.024;19.220;2023-09-12T02:31:55;40.10;;;36.30;;
35290;SDS011;21411;50.024;19.220;2023-09-12T02:34:22;41.60;;;37.80;;
35290;SDS011;21411;50.024;19.220;2023-09-12T02:36:48;40.90;;;37.10;;
35290;SDS011;21411;50.024;19.220;2023-09-12T02:39:15;40.10;;;36.20;;
35290;SDS011;21411;50.024;19.220;2023-09-12T02:41:42;39.20;;;35.40;;
35290;SDS011;21411;50.024;19.220;2023-09-12T02:44:08;42.30;;;38.10;;
35290;SDS011;21411;50.024;19.220;2023-09-12T02:46:36;42.00;;;38.00;;
35290;SDS011;21411;50.024;19.220;2023-09-12T02:49:03;41.80;;;37.80;;
35290;SDS011;21411;50.024;19.220;2023-09-12T02:51:29;40.30;;;36.50;;
35290;SDS011;21411;50.024;19.220;2023-09-12T02:53:56;40.40;;;36.30;;
35290;SDS011;21411;50.024;19.220;2023-09-12T02:56:23;37.60;;;34.10;;
35290;SDS011;21411;50.024;19.220;2023-09-12T02:58:49;38.40;;;34.80;;
35290;SDS011;21411;50.024;19.220;2023-09-12T03:01:16;40.40;;;36.40;;
35290;SDS011;21411;50.024;19.220;2023-09-12T03:03:48;40.00;;;36.10;;
35290;SDS011;21411;50.024;19.220;2023-09-12T03:06:15;36.70;;;33.10;;
35290;SDS011;21411;50.024;19.220;2023-09-12T03:08:43;37.10;;;33.60;;
35290;SDS011;21411;50.024;19.220;2023-09-12T03:11:10;34.00;;;30.80;;
35290;SDS011;21411;50.024;19.220;2023-09-12T03:13:37;35.30;;;31.90;;
35290;SDS011;21411;50.024;19.220;2023-09-12T03:16:09;35.80;;;32.50;;
35290;SDS011;21411;50.024;19.220;2023-09-12T03:18:36;33.90;;;30.80;;
35290;SDS011;21411;50.024;19.220;2023-09-12T03:21:02;33.60;;;30.40;;
35290;SDS011;21411;50.024;19.220;2023-09-12T03:23:29;33.60;;;30.40;;
35290;SDS011;21411;50.024;19.220;2023-09-12T03:25:59;33.90;;;30.80;;
35290;SDS011;21411;50.024;19.220;2023-09-12T03:28:32;33.80;;;30.90;;
35290;SDS011;21411;50.024;19.220;2023-09-12T03:31:09;34.10;;;30.90;;
35290;SDS011;21411;50.024;19.220;2023-09-12T03:33:40;35.10;;;31.80;;
35290;SDS011;21411;50.024;19.220;2023-09-12T03:36:08;34.80;;;31.30;;
35290;SDS011;21411;50.024;19.220;2023-09-12T03:38:35;33.10;;;30.10;;
35290;SDS011;21411;50.024;19.220;2023-09-12T03:41:02;30.40;;;27.60;;
35290;SDS011;21411;50.024;19.220;2023-09-12T03:43:29;36.10;;;32.70;;
35290;SDS011;21411;50.024;19.220;2023-09-12T03:45:56;38.10;;;34.60;;
35290;SDS011;21411;50.024;19.220;2023-09-12T03:48:22;37.50;;;34.00;;
35290;SDS011;21411;50.024;19.220;2023-09-12T03:50:49;36.20;;;32.70;;
35290;SDS011;21411;50.024;19.220;2023-09-12T03:53:15;35.90;;;32.60;;
35290;SDS011;21411;50.024;19.220;2023-09-12T03:55:42;36.20;;;32.80;;
35290;SDS011;21411;50.024;19.220;2023-09-12T03:58:09;37.60;;;34.00;;
35290;SDS011;21411;50.024;19.220;2023-09-12T04:00:36;37.40;;;33.90;;
35290;SDS011;21411;50.024;19.220;2023-09-12T04:03:02;36.90;;;33.50;;
35290;SDS011;21411;50.024;19.220;2023-09-12T04:05:30;39.00;;;35.10;;
35290;SDS011;21411;50.024;19.220;2023-09-12T04:07:56;37.80;;;34.10;;
35290;SDS011;21411;50.024;19.220;2023-09-12T04:10:23;38.00;;;34.50;;
35290;SDS011;21411;50.024;19.220;2023-09-12T04:12:49;38.20;;;34.70;;
35290;SDS011;21411;50.024;19.220;2023-09-12T04:15:16;36.60;;;33.00;;
35290;SDS011;21411;50.024;19.220;2023-09-12T04:17:42;36.00;;;32.70;;
35290;SDS011;21411;50.024;19.220;2023-09-12T04:20:09;35.50;;;32.10;;
35290;SDS011;21411;50.024;19.220;2023-09-12T04:22:42;34.20;;;30.90;;
35290;SDS011;21411;50.024;19.220;2023-09-12T04:25:08;36.40;;;33.00;;
35290;SDS011;21411;50.024;19.220;2023-09-12T04:27:35;31.80;;;28.90;;
35290;SDS011;21411;50.024;19.220;2023-09-12T04:30:01;35.10;;;31.30;;
35290;SDS011;21411;50.024;19.220;2023-09-12T04:32:28;38.60;;;35.00;;
35290;SDS011;21411;50.024;19.220;2023-09-12T04:34:55;35.40;;;32.10;;
35290;SDS011;21411;50.024;19.220;2023-09-12T04:37:22;35.40;;;32.00;;
35290;SDS011;21411;50.024;19.220;2023-09-12T04:39:50;36.00;;;32.50;;
35290;SDS011;21411;50.024;19.220;2023-09-12T04:42:16;36.10;;;32.90;;
35290;SDS011;21411;50.024;19.220;2023-09-12T04:44:43;38.70;;;35.00;;
35290;SDS011;21411;50.024;19.220;2023-09-12T04:47:09;38.10;;;34.50;;
35290;SDS011;21411;50.024;19.220;2023-09-12T04:49:36;36.80;;;33.10;;
35290;SDS011;21411;50.024;19.220;2023-09-12T04:52:03;35.00;;;31.80;;
35290;SDS011;21411;50.024;19.220;2023-09-12T04:54:30;32.40;;;29.20;;
35290;SDS011;21411;50.024;19.220;2023-09-12T04:56:56;33.50;;;30.00;;
35290;SDS011;21411;50.024;19.220;2023-09-12T04:59:23;33.20;;;30.10;;
35290;SDS011;21411;50.024;19.220;2023-09-12T05:01:49;35.00;;;31.60;;
35290;SDS011;21411;50.024;19.220;2023-09-12T05:04:17;33.00;;;29.90;;
35290;SDS011;21411;50.024;19.220;2023-09-12T05:06:44;31.70;;;28.60;;
35290;SDS011;21411;50.024;19.220;2023-09-12T05:09:10;30.70;;;27.90;;
35290;SDS011;21411;50.024;19.220;2023-09-12T05:11:37;32.10;;;28.20;;
35290;SDS011;21411;50.024;19.220;2023-09-12T05:14:03;31.30;;;28.00;;
35290;SDS011;21411;50.024;19.220;2023-09-12T05:16:30;30.20;;;27.40;;
35290;SDS011;21411;50.024;19.220;2023-09-12T05:18:56;33.40;;;29.60;;
35290;SDS011;21411;50.024;19.220;2023-09-12T05:21:23;32.00;;;29.00;;
35290;SDS011;21411;50.024;19.220;2023-09-12T05:23:50;35.70;;;30.20;;
35290;SDS011;21411;50.024;19.220;2023-09-12T05:26:16;44.90;;;32.80;;
35290;SDS011;21411;50.024;19.220;2023-09-12T05:28:43;35.80;;;30.70;;
35290;SDS011;21411;50.024;19.220;2023-09-12T05:31:09;33.00;;;29.40;;
35290;SDS011;21411;50.024;19.220;2023-09-12T05:33:36;29.50;;;26.50;;
35290;SDS011;21411;50.024;19.220;2023-09-12T05:36:02;30.00;;;26.70;;
35290;SDS011;21411;50.024;19.220;2023-09-12T05:38:29;28.70;;;25.80;;
35290;SDS011;21411;50.024;19.220;2023-09-12T05:40:56;25.60;;;23.00;;
35290;SDS011;21411;50.024;19.220;2023-09-12T05:43:23;21.60;;;19.60;;
35290;SDS011;21411;50.024;19.220;2023-09-12T05:45:49;22.90;;;20.80;;
35290;SDS011;21411;50.024;19.220;2023-09-12T05:48:16;22.10;;;20.00;;
35290;SDS011;21411;50.024;19.220;2023-09-12T05:50:42;21.70;;;19.70;;
35290;SDS011;21411;50.024;19.220;2023-09-12T05:53:10;20.70;;;18.90;;
35290;SDS011;21411;50.024;19.220;2023-09-12T05:55:37;21.40;;;19.30;;
35290;SDS011;21411;50.024;19.220;2023-09-12T05:58:03;20.50;;;18.20;;
35290;SDS011;21411;50.024;19.220;2023-09-12T06:00:32;19.70;;;17.70;;
35290;SDS011;21411;50.024;19.220;2023-09-12T06:02:59;19.50;;;17.70;;
35290;SDS011;21411;50.024;19.220;2023-09-12T06:05:26;21.80;;;19.70;;
35290;SDS011;21411;50.024;19.220;2023-09-12T06:07:52;21.00;;;18.90;;
35290;SDS011;21411;50.024;19.220;2023-09-12T06:10:19;21.70;;;19.90;;
35290;SDS011;21411;50.024;19.220;2023-09-12T06:12:45;21.90;;;19.80;;
35290;SDS011;21411;50.024;19.220;2023-09-12T06:15:12;20.80;;;18.90;;
35290;SDS011;21411;50.024;19.220;2023-09-12T06:17:38;48.70;;;40.90;;
35290;SDS011;21411;50.024;19.220;2023-09-12T06:20:05;22.20;;;20.20;;
35290;SDS011;21411;50.024;19.220;2023-09-12T06:22:32;18.10;;;16.60;;
35290;SDS011;21411;50.024;19.220;2023-09-12T06:25:00;17.70;;;16.00;;
35290;SDS011;21411;50.024;19.220;2023-09-12T06:27:27;17.60;;;16.00;;
35290;SDS011;21411;50.024;19.220;2023-09-12T06:29:53;17.70;;;16.00;;
35290;SDS011;21411;50.024;19.220;2023-09-12T06:32:20;16.00;;;14.50;;
35290;SDS011;21411;50.024;19.220;2023-09-12T06:34:46;17.40;;;15.50;;
35290;SDS011;21411;50.024;19.220;2023-09-12T06:37:14;17.60;;;15.50;;
35290;SDS011;21411;50.024;19.220;2023-09-12T06:39:41;17.60;;;16.00;;
35290;SDS011;21411;50.024;19.220;2023-09-12T06:42:08;17.90;;;16.10;;
35290;SDS011;21411;50.024;19.220;2023-09-12T06:44:35;17.90;;;16.30;;
35290;SDS011;21411;50.024;19.220;2023-09-12T06:47:05;17.90;;;16.20;;
35290;SDS011;21411;50.024;19.220;2023-09-12T06:49:32;18.10;;;16.30;;
35290;SDS011;21411;50.024;19.220;2023-09-12T06:51:58;17.90;;;16.10;;
35290;SDS011;21411;50.024;19.220;2023-09-12T06:54:25;18.00;;;16.20;;
35290;SDS011;21411;50.024;19.220;2023-09-12T06:56:52;17.60;;;15.80;;
35290;SDS011;21411;50.024;19.220;2023-09-12T06:59:18;16.70;;;15.10;;
35290;SDS011;21411;50.024;19.220;2023-09-12T07:01:45;17.70;;;15.90;;
35290;SDS011;21411;50.024;19.220;2023-09-12T07:04:11;18.00;;;16.10;;
35290;SDS011;21411;50.024;19.220;2023-09-12T07:06:38;17.20;;;15.40;;
35290;SDS011;21411;50.024;19.220;2023-09-12T07:09:04;15.80;;;14.40;;
35290;SDS011;21411;50.024;19.220;2023-09-12T07:11:31;16.70;;;15.00;;
35290;SDS011;21411;50.024;19.220;2023-09-12T07:13:57;17.50;;;16.00;;
35290;SDS011;21411;50.024;19.220;2023-09-12T07:16:24;18.80;;;16.90;;
35290;SDS011;21411;50.024;19.220;2023-09-12T07:18:50;17.50;;;15.90;;
35290;SDS011;21411;50.024;19.220;2023-09-12T07:21:17;17.90;;;16.10;;
35290;SDS011;21411;50.024;19.220;2023-09-12T07:23:44;18.50;;;16.90;;
35290;SDS011;21411;50.024;19.220;2023-09-12T07:26:14;18.60;;;16.50;;
35290;SDS011;21411;50.024;19.220;2023-09-12T07:28:40;18.30;;;16.50;;
35290;SDS011;21411;50.024;19.220;2023-09-12T07:31:07;18.10;;;16.30;;
35290;SDS011;21411;50.024;19.220;2023-09-12T07:33:34;18.70;;;16.90;;
35290;SDS011;21411;50.024;19.220;2023-09-12T07:36:01;17.40;;;16.00;;
35290;SDS011;21411;50.024;19.220;2023-09-12T07:38:29;18.70;;;16.80;;
35290;SDS011;21411;50.024;19.220;2023-09-12T07:41:01;18.40;;;16.60;;
35290;SDS011;21411;50.024;19.220;2023-09-12T07:43:29;17.70;;;16.00;;
35290;SDS011;21411;50.024;19.220;2023-09-12T07:45:56;16.40;;;14.70;;
35290;SDS011;21411;50.024;19.220;2023-09-12T07:48:23;16.50;;;14.90;;
35290;SDS011;21411;50.024;19.220;2023-09-12T07:50:50;15.70;;;14.50;;
35290;SDS011;21411;50.024;19.220;2023-09-12T07:53:17;15.90;;;14.60;;
35290;SDS011;21411;50.024;19.220;2023-09-12T07:55:44;15.80;;;14.30;;
35290;SDS011;21411;50.024;19.220;2023-09-12T07:58:14;16.80;;;15.30;;
35290;SDS011;21411;50.024;19.220;2023-09-12T08:00:41;15.30;;;14.00;;
35290;SDS011;21411;50.024;19.220;2023-09-12T08:03:08;17.30;;;15.70;;
35290;SDS011;21411;50.024;19.220;2023-09-12T08:05:34;16.30;;;14.80;;
35290;SDS011;21411;50.024;19.220;2023-09-12T08:08:01;16.50;;;15.00;;
35290;SDS011;21411;50.024;19.220;2023-09-12T08:10:28;16.50;;;15.00;;
35290;SDS011;21411;50.024;19.220;2023-09-12T08:12:55;16.70;;;15.20;;
35290;SDS011;21411;50.024;19.220;2023-09-12T08:15:21;16.40;;;14.90;;
35290;SDS011;21411;50.024;19.220;2023-09-12T08:17:48;15.60;;;14.00;;
35290;SDS011;21411;50.024;19.220;2023-09-12T08:22:45;15.10;;;13.90;;
35290;SDS011;21411;50.024;19.220;2023-09-12T08:25:11;15.90;;;14.40;;
35290;SDS011;21411;50.024;19.220;2023-09-12T08:27:38;15.60;;;14.20;;
35290;SDS011;21411;50.024;19.220;2023-09-12T08:30:05;15.40;;;13.90;;
35290;SDS011;21411;50.024;19.220;2023-09-12T08:32:32;14.70;;;13.20;;
35290;SDS011;21411;50.024;19.220;2023-09-12T08:34:59;14.80;;;12.60;;
35290;SDS011;21411;50.024;19.220;2023-09-12T08:37:25;13.20;;;12.00;;
35290;SDS011;21411;50.024;19.220;2023-09-12T08:39:53;15.30;;;13.80;;
35290;SDS011;21411;50.024;19.220;2023-09-12T08:42:22;14.70;;;13.20;;
35290;SDS011;21411;50.024;19.220;2023-09-12T08:44:50;14.30;;;13.00;;
35290;SDS011;21411;50.024;19.220;2023-09-12T08:47:16;12.50;;;11.50;;
35290;SDS011;21411;50.024;19.220;2023-09-12T08:49:47;13.50;;;12.30;;
35290;SDS011;21411;50.024;19.220;2023-09-12T08:52:14;14.10;;;13.00;;
35290;SDS011;21411;50.024;19.220;2023-09-12T08:54:40;14.00;;;12.80;;
35290;SDS011;21411;50.024;19.220;2023-09-12T08:57:07;12.70;;;11.60;;
35290;SDS011;21411;50.024;19.220;2023-09-12T08:59:35;12.50;;;11.20;;
35290;SDS011;21411;50.024;19.220;2023-09-12T09:02:03;11.90;;;10.80;;
35290;SDS011;21411;50.024;19.220;2023-09-12T09:04:33;12.20;;;11.00;;
35290;SDS011;21411;50.024;19.220;2023-09-12T09:07:01;12.30;;;11.00;;
35290;SDS011;21411;50.024;19.220;2023-09-12T09:09:29;13.30;;;12.00;;
35290;SDS011;21411;50.024;19.220;2023-09-12T09:11:57;13.60;;;12.30;;
35290;SDS011;21411;50.024;19.220;2023-09-12T09:14:23;13.30;;;12.10;;
35290;SDS011;21411;50.024;19.220;2023-09-12T09:16:50;13.10;;;11.80;;
35290;SDS011;21411;50.024;19.220;2023-09-12T09:19:17;14.60;;;13.10;;
35290;SDS011;21411;50.024;19.220;2023-09-12T09:21:44;12.30;;;11.40;;
35290;SDS011;21411;50.024;19.220;2023-09-12T09:24:12;13.40;;;12.20;;
35290;SDS011;21411;50.024;19.220;2023-09-12T09:29:19;12.40;;;11.30;;
35290;SDS011;21411;50.024;19.220;2023-09-12T09:31:47;13.00;;;11.70;;
35290;SDS011;21411;50.024;19.220;2023-09-12T09:34:16;13.80;;;11.40;;
35290;SDS011;21411;50.024;19.220;2023-09-12T09:36:46;10.60;;;9.70;;
35290;SDS011;21411;50.024;19.220;2023-09-12T09:39:15;10.70;;;9.60;;
35290;SDS011;21411;50.024;19.220;2023-09-12T09:41:46;10.70;;;9.70;;
35290;SDS011;21411;50.024;19.220;2023-09-12T09:44:14;10.80;;;9.80;;
35290;SDS011;21411;50.024;19.220;2023-09-12T09:46:44;11.60;;;10.60;;
35290;SDS011;21411;50.024;19.220;2023-09-12T09:49:14;11.00;;;9.90;;
35290;SDS011;21411;50.024;19.220;2023-09-12T09:51:41;10.40;;;9.60;;
35290;SDS011;21411;50.024;19.220;2023-09-12T09:54:11;11.20;;;10.10;;
35290;SDS011;21411;50.024;19.220;2023-09-12T09:56:48;11.70;;;10.50;;
35290;SDS011;21411;50.024;19.220;2023-09-12T09:59:17;11.40;;;10.20;;
35290;SDS011;21411;50.024;19.220;2023-09-12T10:01:45;11.00;;;9.90;;
35290;SDS011;21411;50.024;19.220;2023-09-12T10:04:14;11.10;;;10.10;;
35290;SDS011;21411;50.024;19.220;2023-09-12T10:06:45;13.10;;;10.00;;
35290;SDS011;21411;50.024;19.220;2023-09-12T10:09:13;11.50;;;10.40;;
35290;SDS011;21411;50.024;19.220;2023-09-12T10:11:41;11.60;;;10.50;;
35290;SDS011;21411;50.024;19.220;2023-09-12T10:14:09;9.70;;;8.70;;
35290;SDS011;21411;50.024;19.220;2023-09-12T10:16:57;9.50;;;8.50;;
35290;SDS011;21411;50.024;19.220;2023-09-12T10:22:21;9.80;;;8.80;;
35290;SDS011;21411;50.024;19.220;2023-09-12T10:24:54;11.80;;;8.70;;
35290;SDS011;21411;50.024;19.220;2023-09-12T10:27:22;8.90;;;7.60;;
35290;SDS011;21411;50.024;19.220;2023-09-12T10:29:51;9.60;;;8.60;;
35290;SDS011;21411;50.024;19.220;2023-09-12T10:32:19;8.50;;;7.80;;
35290;SDS011;21411;50.024;19.220;2023-09-12T10:34:48;9.10;;;8.20;;
35290;SDS011;21411;50.024;19.220;2023-09-12T10:37:15;9.10;;;8.10;;
35290;SDS011;21411;50.024;19.220;2023-09-12T10:39:43;7.90;;;7.00;;
35290;SDS011;21411;50.024;19.220;2023-09-12T10:42:10;8.00;;;7.30;;
35290;SDS011;21411;50.024;19.220;2023-09-12T10:44:38;8.90;;;7.10;;
35290;SDS011;21411;50.024;19.220;2023-09-12T10:47:05;7.70;;;7.00;;
35290;SDS011;21411;50.024;19.220;2023-09-12T10:49:33;8.30;;;7.50;;
35290;SDS011;21411;50.024;19.220;2023-09-12T10:51:59;8.70;;;7.90;;
35290;SDS011;21411;50.024;19.220;2023-09-12T10:54:35;9.60;;;8.60;;
35290;SDS011;21411;50.024;19.220;2023-09-12T10:59:30;10.20;;;9.10;;
35290;SDS011;21411;50.024;19.220;2023-09-12T11:04:59;9.80;;;8.80;;
35290;SDS011;21411;50.024;19.220;2023-09-12T11:07:43;10.40;;;9.40;;
35290;SDS011;21411;50.024;19.220;2023-09-12T11:12:49;9.40;;;8.60;;
35290;SDS011;21411;50.024;19.220;2023-09-12T11:15:21;10.70;;;9.80;;
35290;SDS011;21411;50.024;19.220;2023-09-12T11:18:04;10.20;;;9.30;;
35290;SDS011;21411;50.024;19.220;2023-09-12T11:23:29;10.10;;;9.20;;
35290;SDS011;21411;50.024;19.220;2023-09-12T11:26:07;10.30;;;8.90;;
35290;SDS011;21411;50.024;19.220;2023-09-12T11:28:34;10.40;;;9.40;;
35290;SDS011;21411;50.024;19.220;2023-09-12T11:31:01;12.80;;;9.70;;
35290;SDS011;21411;50.024;19.220;2023-09-12T11:33:27;10.80;;;9.60;;
35290;SDS011;21411;50.024;19.220;2023-09-12T11:35:55;10.30;;;8.40;;
35290;SDS011;21411;50.024;19.220;2023-09-12T11:38:27;9.30;;;8.50;;
35290;SDS011;21411;50.024;19.220;2023-09-12T11:40:55;11.00;;;8.40;;
35290;SDS011;21411;50.024;19.220;2023-09-12T11:43:23;9.20;;;8.30;;
35290;SDS011;21411;50.024;19.220;2023-09-12T11:45:51;13.50;;;8.70;;
35290;SDS011;21411;50.024;19.220;2023-09-12T11:48:19;9.50;;;8.60;;
35290;SDS011;21411;50.024;19.220;2023-09-12T11:50:53;9.50;;;8.70;;
35290;SDS011;21411;50.024;19.220;2023-09-12T11:53:22;9.90;;;9.00;;
35290;SDS011;21411;50.024;19.220;2023-09-12T11:55:57;9.60;;;8.40;;
35290;SDS011;21411;50.024;19.220;2023-09-12T11:58:24;13.90;;;12.60;;
35290;SDS011;21411;50.024;19.220;2023-09-12T12:00:54;10.50;;;9.50;;
35290;SDS011;21411;50.024;19.220;2023-09-12T12:03:22;11.20;;;9.80;;
35290;SDS011;21411;50.024;19.220;2023-09-12T12:05:50;9.90;;;9.00;;
35290;SDS011;21411;50.024;19.220;2023-09-12T12:08:18;9.90;;;8.90;;
35290;SDS011;21411;50.024;19.220;2023-09-12T12:10:49;8.60;;;7.90;;
35290;SDS011;21411;50.024;19.220;2023-09-12T12:13:17;8.90;;;8.10;;
35290;SDS011;21411;50.024;19.220;2023-09-12T12:15:44;9.20;;;8.40;;
35290;SDS011;21411;50.024;19.220;2023-09-12T12:18:11;9.60;;;8.60;;
35290;SDS011;21411;50.024;19.220;2023-09-12T12:20:37;8.30;;;7.60;;
35290;SDS011;21411;50.024;19.220;2023-09-12T12:23:04;8.20;;;7.60;;
35290;SDS011;21411;50.024;19.220;2023-09-12T12:25:34;9.60;;;8.70;;
35290;SDS011;21411;50.024;19.220;2023-09-12T12:28:02;9.80;;;8.80;;
35290;SDS011;21411;50.024;19.220;2023-09-12T12:30:33;8.90;;;8.20;;
35290;SDS011;21411;50.024;19.220;2023-09-12T12:33:01;11.00;;;8.60;;
35290;SDS011;21411;50.024;19.220;2023-09-12T12:35:33;10.70;;;7.70;;
35290;SDS011;21411;50.024;19.220;2023-09-12T12:37:59;8.30;;;7.60;;
35290;SDS011;21411;50.024;19.220;2023-09-12T12:40:27;8.30;;;7.60;;
35290;SDS011;21411;50.024;19.220;2023-09-12T12:42:53;8.60;;;8.00;;
35290;SDS011;21411;50.024;19.220;2023-09-12T12:45:21;9.30;;;7.70;;
35290;SDS011;21411;50.024;19.220;2023-09-12T12:47:57;24.00;;;7.70;;
35290;SDS011;21411;50.024;19.220;2023-09-12T12:50:26;9.10;;;8.20;;
35290;SDS011;21411;50.024;19.220;2023-09-12T12:52:52;9.00;;;7.40;;
35290;SDS011;21411;50.024;19.220;2023-09-12T12:55:20;8.40;;;7.60;;
35290;SDS011;21411;50.024;19.220;2023-09-12T12:57:47;8.20;;;7.40;;
35290;SDS011;21411;50.024;19.220;2023-09-12T13:00:15;8.10;;;7.40;;
35290;SDS011;21411;50.024;19.220;2023-09-12T13:02:44;8.30;;;7.50;;
35290;SDS011;21411;50.024;19.220;2023-09-12T13:05:24;7.40;;;6.70;;
35290;SDS011;21411;50.024;19.220;2023-09-12T13:07:51;7.70;;;7.10;;
35290;SDS011;21411;50.024;19.220;2023-09-12T13:10:18;9.10;;;7.70;;
35290;SDS011;21411;50.024;19.220;2023-09-12T13:12:45;7.70;;;7.20;;
35290;SDS011;21411;50.024;19.220;2023-09-12T13:15:12;7.80;;;7.10;;
35290;SDS011;21411;50.024;19.220;2023-09-12T13:17:40;8.10;;;7.30;;
35290;SDS011;21411;50.024;19.220;2023-09-12T13:20:08;8.00;;;7.30;;
35290;SDS011;21411;50.024;19.220;2023-09-12T13:22:35;11.30;;;7.70;;
35290;SDS011;21411;50.024;19.220;2023-09-12T13:25:02;8.40;;;7.60;;
35290;SDS011;21411;50.024;19.220;2023-09-12T13:27:29;8.30;;;7.50;;
35290;SDS011;21411;50.024;19.220;2023-09-12T13:29:56;7.60;;;7.00;;
35290;SDS011;21411;50.024;19.220;2023-09-12T13:32:22;9.70;;;8.40;;
35290;SDS011;21411;50.024;19.220;2023-09-12T13:34:49;7.90;;;7.10;;
35290;SDS011;21411;50.024;19.220;2023-09-12T13:37:16;8.20;;;7.50;;
35290;SDS011;21411;50.024;19.220;2023-09-12T13:39:45;8.10;;;7.40;;
35290;SDS011;21411;50.024;19.220;2023-09-12T13:42:16;8.50;;;7.70;;
35290;SDS011;21411;50.024;19.220;2023-09-12T13:44:49;10.80;;;7.80;;
35290;SDS011;21411;50.024;19.220;2023-09-12T13:47:16;7.70;;;7.10;;
35290;SDS011;21411;50.024;19.220;2023-09-12T13:49:48;8.40;;;7.70;;
35290;SDS011;21411;50.024;19.220;2023-09-12T13:52:19;8.00;;;7.10;;
35290;SDS011;21411;50.024;19.220;2023-09-12T13:54:46;8.00;;;7.40;;
35290;SDS011;21411;50.024;19.220;2023-09-12T13:57:13;8.50;;;7.80;;
35290;SDS011;21411;50.024;19.220;2023-09-12T13:59:39;8.20;;;7.60;;
35290;SDS011;21411;50.024;19.220;2023-09-12T14:02:06;8.40;;;7.60;;
35290;SDS011;21411;50.024;19.220;2023-09-12T14:04:32;7.90;;;7.20;;
35290;SDS011;21411;50.024;19.220;2023-09-12T14:06:59;11.50;;;8.10;;
35290;SDS011;21411;50.024;19.220;2023-09-12T14:09:25;9.10;;;8.10;;
35290;SDS011;21411;50.024;19.220;2023-09-12T14:11:52;8.60;;;7.80;;
35290;SDS011;21411;50.024;19.220;2023-09-12T14:14:19;8.70;;;7.80;;
35290;SDS011;21411;50.024;19.220;2023-09-12T14:16:45;11.20;;;7.80;;
35290;SDS011;21411;50.024;19.220;2023-09-12T14:19:12;9.60;;;8.20;;
35290;SDS011;21411;50.024;19.220;2023-09-12T14:21:41;8.50;;;7.40;;
35290;SDS011;21411;50.024;19.220;2023-09-12T14:24:08;10.70;;;7.80;;
35290;SDS011;21411;50.024;19.220;2023-09-12T14:26:34;9.00;;;8.20;;
35290;SDS011;21411;50.024;19.220;2023-09-12T14:29:01;13.90;;;8.50;;
35290;SDS011;21411;50.024;19.220;2023-09-12T14:31:27;8.90;;;7.70;;
35290;SDS011;21411;50.024;19.220;2023-09-12T14:33:54;10.00;;;9.00;;
35290;SDS011;21411;50.024;19.220;2023-09-12T14:36:21;8.90;;;8.00;;
35290;SDS011;21411;50.024;19.220;2023-09-12T14:38:48;8.80;;;7.30;;
35290;SDS011;21411;50.024;19.220;2023-09-12T14:41:14;9.60;;;8.50;;
35290;SDS011;21411;50.024;19.220;2023-09-12T14:43:41;11.00;;;8.10;;
35290;SDS011;21411;50.024;19.220;2023-09-12T14:46:07;10.30;;;8.10;;
35290;SDS011;21411;50.024;19.220;2023-09-12T14:48:34;9.10;;;8.30;;